Terminal Aerodrome Forecast
Issued by NWS Detroit/Pontiac, MI

Home | Current Version | Previous Version | Text Only | Print | Product List | Glossary On
Versions: 1 2 3 4 5 6 7 8 9 10 11 12 13 14 15 16 17 18 19 20 21 22 23 24 25 26 27 28
000
FTUS43 KDTX 172320
TAFDTW
TAF
KDTW 172320Z 1800/1906 15010KT P6SM OVC100
     FM180300 17014KT 6SM -SHRA SCT030 BKN050 OVC080 WS015/22040KT
     FM180600 20012KT 4SM RA BR BKN012 OVC030 WS015/22040KT
      TEMPO 1806/1808 2SM TSRA BR OVC008CB
     FM180900 19008KT 2SM -SHRA BR OVC008
     FM181200 17006KT 1SM -SHRA BR OVC004
     FM181700 22010KT 5SM SHRA BR BKN008 OVC022
     FM182300 32015G24KT P6SM -SHRA SCT010 OVC022
     FM190200 30024G36KT P6SM BKN028 OVC050=

USA.gov is the U.S. government's official web portal to all federal, state and local government web resources and services.